sensor_id;sensor_type;location;lat;lon;timestamp;P1;durP1;ratioP1;P2;durP2;ratioP2
31836;SDS011;18401;49.344;6.240;2023-02-12T00:01:01;35.13;;;16.67;;
31836;SDS011;18401;49.344;6.240;2023-02-12T00:03:27;40.42;;;17.63;;
31836;SDS011;18401;49.344;6.240;2023-02-12T00:05:52;34.42;;;16.05;;
31836;SDS011;18401;49.344;6.240;2023-02-12T00:08:18;37.95;;;17.35;;
31836;SDS011;18401;49.344;6.240;2023-02-12T00:10:44;33.75;;;15.98;;
31836;SDS011;18401;49.344;6.240;2023-02-12T00:13:10;39.05;;;17.75;;
31836;SDS011;18401;49.344;6.240;2023-02-12T00:15:39;41.13;;;17.67;;
31836;SDS011;18401;49.344;6.240;2023-02-12T00:18:06;37.08;;;17.73;;
31836;SDS011;18401;49.344;6.240;2023-02-12T00:20:32;38.58;;;17.20;;
31836;SDS011;18401;49.344;6.240;2023-02-12T00:22:58;34.13;;;16.08;;
31836;SDS011;18401;49.344;6.240;2023-02-12T00:25:24;39.67;;;16.85;;
31836;SDS011;18401;49.344;6.240;2023-02-12T00:27:49;39.60;;;17.33;;
31836;SDS011;18401;49.344;6.240;2023-02-12T00:30:15;42.90;;;18.02;;
31836;SDS011;18401;49.344;6.240;2023-02-12T00:32:41;38.33;;;16.90;;
31836;SDS011;18401;49.344;6.240;2023-02-12T00:35:08;41.65;;;17.60;;
31836;SDS011;18401;49.344;6.240;2023-02-12T00:37:34;40.83;;;18.52;;
31836;SDS011;18401;49.344;6.240;2023-02-12T00:40:00;39.35;;;17.13;;
31836;SDS011;18401;49.344;6.240;2023-02-12T00:42:25;34.83;;;16.67;;
31836;SDS011;18401;49.344;6.240;2023-02-12T00:44:51;37.03;;;16.63;;
31836;SDS011;18401;49.344;6.240;2023-02-12T00:47:17;38.80;;;17.05;;
31836;SDS011;18401;49.344;6.240;2023-02-12T00:49:42;34.10;;;16.45;;
31836;SDS011;18401;49.344;6.240;2023-02-12T00:52:08;35.50;;;16.08;;
31836;SDS011;18401;49.344;6.240;2023-02-12T00:54:34;44.28;;;19.10;;
31836;SDS011;18401;49.344;6.240;2023-02-12T00:57:00;40.15;;;18.67;;
31836;SDS011;18401;49.344;6.240;2023-02-12T00:59:25;37.50;;;19.02;;
31836;SDS011;18401;49.344;6.240;2023-02-12T01:01:52;45.33;;;19.65;;
31836;SDS011;18401;49.344;6.240;2023-02-12T01:04:19;43.50;;;16.48;;
31836;SDS011;18401;49.344;6.240;2023-02-12T01:06:45;32.65;;;16.33;;
31836;SDS011;18401;49.344;6.240;2023-02-12T01:09:11;32.22;;;15.35;;
31836;SDS011;18401;49.344;6.240;2023-02-12T01:11:37;41.30;;;17.00;;
31836;SDS011;18401;49.344;6.240;2023-02-12T01:14:03;45.78;;;19.27;;
31836;SDS011;18401;49.344;6.240;2023-02-12T01:16:30;43.30;;;18.98;;
31836;SDS011;18401;49.344;6.240;2023-02-12T01:18:57;45.22;;;19.88;;
31836;SDS011;18401;49.344;6.240;2023-02-12T01:21:25;46.33;;;20.48;;
31836;SDS011;18401;49.344;6.240;2023-02-12T01:23:53;50.95;;;21.30;;
31836;SDS011;18401;49.344;6.240;2023-02-12T01:26:19;51.83;;;21.65;;
31836;SDS011;18401;49.344;6.240;2023-02-12T01:28:48;47.70;;;21.60;;
31836;SDS011;18401;49.344;6.240;2023-02-12T01:31:20;45.53;;;20.33;;
31836;SDS011;18401;49.344;6.240;2023-02-12T01:33:48;39.33;;;19.13;;
31836;SDS011;18401;49.344;6.240;2023-02-12T01:36:15;51.55;;;22.08;;
31836;SDS011;18401;49.344;6.240;2023-02-12T01:38:41;59.95;;;25.15;;
31836;SDS011;18401;49.344;6.240;2023-02-12T01:41:11;45.53;;;20.58;;
31836;SDS011;18401;49.344;6.240;2023-02-12T01:43:38;47.45;;;22.13;;
31836;SDS011;18401;49.344;6.240;2023-02-12T01:46:05;53.60;;;21.83;;
31836;SDS011;18401;49.344;6.240;2023-02-12T01:48:33;53.45;;;23.92;;
31836;SDS011;18401;49.344;6.240;2023-02-12T01:51:04;55.92;;;24.80;;
31836;SDS011;18401;49.344;6.240;2023-02-12T01:53:34;65.60;;;25.75;;
31836;SDS011;18401;49.344;6.240;2023-02-12T01:56:02;59.90;;;25.27;;
31836;SDS011;18401;49.344;6.240;2023-02-12T01:58:33;65.90;;;26.83;;
31836;SDS011;18401;49.344;6.240;2023-02-12T02:01:02;66.47;;;26.50;;
31836;SDS011;18401;49.344;6.240;2023-02-12T02:03:31;73.05;;;28.20;;
31836;SDS011;18401;49.344;6.240;2023-02-12T02:06:10;73.65;;;28.23;;
31836;SDS011;18401;49.344;6.240;2023-02-12T02:08:37;72.57;;;29.10;;
31836;SDS011;18401;49.344;6.240;2023-02-12T02:11:04;73.47;;;27.75;;
31836;SDS011;18401;49.344;6.240;2023-02-12T02:16:34;75.10;;;29.85;;
31836;SDS011;18401;49.344;6.240;2023-02-12T02:19:03;74.55;;;29.17;;
31836;SDS011;18401;49.344;6.240;2023-02-12T02:21:44;62.95;;;26.67;;
31836;SDS011;18401;49.344;6.240;2023-02-12T02:32:50;60.38;;;26.35;;
31836;SDS011;18401;49.344;6.240;2023-02-12T02:41:12;50.42;;;23.25;;
31836;SDS011;18401;49.344;6.240;2023-02-12T02:43:48;54.78;;;24.38;;
31836;SDS011;18401;49.344;6.240;2023-02-12T02:49:22;61.97;;;27.17;;
31836;SDS011;18401;49.344;6.240;2023-02-12T02:51:56;56.08;;;25.67;;
31836;SDS011;18401;49.344;6.240;2023-02-12T02:57:12;56.33;;;24.55;;
31836;SDS011;18401;49.344;6.240;2023-02-12T02:59:44;58.58;;;24.80;;
31836;SDS011;18401;49.344;6.240;2023-02-12T03:02:32;55.53;;;24.15;;
31836;SDS011;18401;49.344;6.240;2023-02-12T03:05:03;57.53;;;25.23;;
31836;SDS011;18401;49.344;6.240;2023-02-12T03:07:42;57.60;;;26.85;;
31836;SDS011;18401;49.344;6.240;2023-02-12T03:10:13;48.75;;;21.25;;
31836;SDS011;18401;49.344;6.240;2023-02-12T03:12:47;61.35;;;25.20;;
31836;SDS011;18401;49.344;6.240;2023-02-12T03:17:50;60.05;;;25.60;;
31836;SDS011;18401;49.344;6.240;2023-02-12T03:22:55;64.70;;;26.30;;
31836;SDS011;18401;49.344;6.240;2023-02-12T03:25:27;58.40;;;24.20;;
31836;SDS011;18401;49.344;6.240;2023-02-12T03:28:15;57.88;;;24.92;;
31836;SDS011;18401;49.344;6.240;2023-02-12T03:42:04;54.80;;;25.45;;
31836;SDS011;18401;49.344;6.240;2023-02-12T03:44:55;47.78;;;19.63;;
31836;SDS011;18401;49.344;6.240;2023-02-12T03:47:38;57.40;;;24.27;;
31836;SDS011;18401;49.344;6.240;2023-02-12T03:52:57;56.53;;;24.80;;
31836;SDS011;18401;49.344;6.240;2023-02-12T03:55:23;56.80;;;25.30;;
31836;SDS011;18401;49.344;6.240;2023-02-12T03:57:51;60.20;;;26.95;;
31836;SDS011;18401;49.344;6.240;2023-02-12T04:00:24;70.45;;;29.35;;
31836;SDS011;18401;49.344;6.240;2023-02-12T04:02:51;61.05;;;25.00;;
31836;SDS011;18401;49.344;6.240;2023-02-12T04:05:22;66.82;;;27.60;;
31836;SDS011;18401;49.344;6.240;2023-02-12T04:07:49;69.97;;;28.95;;
31836;SDS011;18401;49.344;6.240;2023-02-12T04:10:17;70.25;;;27.35;;
31836;SDS011;18401;49.344;6.240;2023-02-12T04:18:17;62.60;;;26.48;;
31836;SDS011;18401;49.344;6.240;2023-02-12T04:20:57;70.05;;;28.00;;
31836;SDS011;18401;49.344;6.240;2023-02-12T04:23:38;65.47;;;28.77;;
31836;SDS011;18401;49.344;6.240;2023-02-12T04:37:04;51.33;;;23.73;;
31836;SDS011;18401;49.344;6.240;2023-02-12T04:39:52;48.78;;;22.42;;
31836;SDS011;18401;49.344;6.240;2023-02-12T04:42:18;63.92;;;26.20;;
31836;SDS011;18401;49.344;6.240;2023-02-12T04:44:44;62.90;;;24.40;;
31836;SDS011;18401;49.344;6.240;2023-02-12T04:47:11;55.28;;;24.15;;
31836;SDS011;18401;49.344;6.240;2023-02-12T04:49:39;53.38;;;24.60;;
31836;SDS011;18401;49.344;6.240;2023-02-12T04:52:04;60.58;;;26.73;;
31836;SDS011;18401;49.344;6.240;2023-02-12T04:54:31;66.47;;;27.65;;
31836;SDS011;18401;49.344;6.240;2023-02-12T04:56:57;73.43;;;29.65;;
31836;SDS011;18401;49.344;6.240;2023-02-12T04:59:23;62.33;;;25.83;;
31836;SDS011;18401;49.344;6.240;2023-02-12T05:01:48;67.72;;;25.23;;
31836;SDS011;18401;49.344;6.240;2023-02-12T05:04:15;69.82;;;27.27;;
31836;SDS011;18401;49.344;6.240;2023-02-12T05:06:42;56.85;;;24.67;;
31836;SDS011;18401;49.344;6.240;2023-02-12T05:09:09;63.78;;;26.55;;
31836;SDS011;18401;49.344;6.240;2023-02-12T05:11:39;59.45;;;23.58;;
31836;SDS011;18401;49.344;6.240;2023-02-12T05:14:04;65.03;;;26.95;;
31836;SDS011;18401;49.344;6.240;2023-02-12T05:16:30;68.32;;;28.45;;
31836;SDS011;18401;49.344;6.240;2023-02-12T05:18:56;61.05;;;26.15;;
31836;SDS011;18401;49.344;6.240;2023-02-12T05:21:21;55.90;;;23.10;;
31836;SDS011;18401;49.344;6.240;2023-02-12T05:23:47;62.47;;;26.65;;
31836;SDS011;18401;49.344;6.240;2023-02-12T05:26:14;49.70;;;23.70;;
31836;SDS011;18401;49.344;6.240;2023-02-12T05:28:41;63.03;;;25.48;;
31836;SDS011;18401;49.344;6.240;2023-02-12T05:31:08;61.72;;;27.27;;
31836;SDS011;18401;49.344;6.240;2023-02-12T05:33:37;62.90;;;26.67;;
31836;SDS011;18401;49.344;6.240;2023-02-12T05:38:29;60.22;;;24.73;;
31836;SDS011;18401;49.344;6.240;2023-02-12T05:40:59;60.78;;;25.23;;
31836;SDS011;18401;49.344;6.240;2023-02-12T05:43:29;55.47;;;24.67;;
31836;SDS011;18401;49.344;6.240;2023-02-12T05:45:59;52.00;;;23.08;;
31836;SDS011;18401;49.344;6.240;2023-02-12T05:48:28;53.05;;;22.95;;
31836;SDS011;18401;49.344;6.240;2023-02-12T05:51:00;64.35;;;24.85;;
31836;SDS011;18401;49.344;6.240;2023-02-12T05:53:27;55.72;;;23.63;;
31836;SDS011;18401;49.344;6.240;2023-02-12T05:55:53;54.85;;;25.27;;
31836;SDS011;18401;49.344;6.240;2023-02-12T05:58:18;56.33;;;25.05;;
31836;SDS011;18401;49.344;6.240;2023-02-12T06:00:44;64.97;;;25.17;;
31836;SDS011;18401;49.344;6.240;2023-02-12T06:03:10;58.63;;;24.38;;
31836;SDS011;18401;49.344;6.240;2023-02-12T06:05:35;51.95;;;22.60;;
31836;SDS011;18401;49.344;6.240;2023-02-12T06:08:01;49.58;;;23.00;;
31836;SDS011;18401;49.344;6.240;2023-02-12T06:10:27;59.90;;;24.88;;
31836;SDS011;18401;49.344;6.240;2023-02-12T06:12:53;52.22;;;23.52;;
31836;SDS011;18401;49.344;6.240;2023-02-12T06:15:19;53.13;;;23.42;;
31836;SDS011;18401;49.344;6.240;2023-02-12T06:17:45;61.38;;;23.85;;
31836;SDS011;18401;49.344;6.240;2023-02-12T06:20:10;53.60;;;24.08;;
31836;SDS011;18401;49.344;6.240;2023-02-12T06:22:36;66.63;;;26.55;;
31836;SDS011;18401;49.344;6.240;2023-02-12T06:25:02;67.85;;;26.45;;
31836;SDS011;18401;49.344;6.240;2023-02-12T06:27:29;63.40;;;26.70;;
31836;SDS011;18401;49.344;6.240;2023-02-12T06:29:54;59.88;;;24.65;;
31836;SDS011;18401;49.344;6.240;2023-02-12T06:32:20;51.60;;;24.38;;
31836;SDS011;18401;49.344;6.240;2023-02-12T06:34:46;54.80;;;23.23;;
31836;SDS011;18401;49.344;6.240;2023-02-12T06:37:12;61.42;;;26.40;;
31836;SDS011;18401;49.344;6.240;2023-02-12T06:39:37;66.32;;;26.77;;
31836;SDS011;18401;49.344;6.240;2023-02-12T06:42:03;65.32;;;26.90;;
31836;SDS011;18401;49.344;6.240;2023-02-12T06:44:29;61.95;;;25.98;;
31836;SDS011;18401;49.344;6.240;2023-02-12T06:46:55;59.38;;;25.30;;
31836;SDS011;18401;49.344;6.240;2023-02-12T06:49:22;60.33;;;24.58;;
31836;SDS011;18401;49.344;6.240;2023-02-12T06:51:48;68.90;;;25.65;;
31836;SDS011;18401;49.344;6.240;2023-02-12T06:54:15;64.18;;;27.95;;
31836;SDS011;18401;49.344;6.240;2023-02-12T06:56:41;66.03;;;27.15;;
31836;SDS011;18401;49.344;6.240;2023-02-12T06:59:09;66.05;;;27.42;;
31836;SDS011;18401;49.344;6.240;2023-02-12T07:01:38;70.13;;;26.88;;
31836;SDS011;18401;49.344;6.240;2023-02-12T07:04:03;54.05;;;25.05;;
31836;SDS011;18401;49.344;6.240;2023-02-12T07:06:30;61.13;;;25.75;;
31836;SDS011;18401;49.344;6.240;2023-02-12T07:08:57;54.40;;;23.83;;
31836;SDS011;18401;49.344;6.240;2023-02-12T07:11:24;67.57;;;26.90;;
31836;SDS011;18401;49.344;6.240;2023-02-12T07:13:50;67.38;;;27.23;;
31836;SDS011;18401;49.344;6.240;2023-02-12T07:16:16;65.15;;;26.63;;
31836;SDS011;18401;49.344;6.240;2023-02-12T07:18:42;62.40;;;25.05;;
31836;SDS011;18401;49.344;6.240;2023-02-12T07:21:08;54.20;;;23.45;;
31836;SDS011;18401;49.344;6.240;2023-02-12T07:23:35;62.85;;;25.75;;
31836;SDS011;18401;49.344;6.240;2023-02-12T07:26:09;67.38;;;26.02;;
31836;SDS011;18401;49.344;6.240;2023-02-12T07:28:36;54.03;;;24.92;;
31836;SDS011;18401;49.344;6.240;2023-02-12T07:31:09;56.55;;;23.88;;
31836;SDS011;18401;49.344;6.240;2023-02-12T07:33:37;51.95;;;22.95;;
31836;SDS011;18401;49.344;6.240;2023-02-12T07:36:04;66.28;;;26.73;;
31836;SDS011;18401;49.344;6.240;2023-02-12T07:38:31;53.38;;;23.75;;
31836;SDS011;18401;49.344;6.240;2023-02-12T07:41:12;59.70;;;24.65;;
31836;SDS011;18401;49.344;6.240;2023-02-12T07:43:40;59.72;;;23.63;;
31836;SDS011;18401;49.344;6.240;2023-02-12T07:46:17;53.70;;;22.70;;
31836;SDS011;18401;49.344;6.240;2023-02-12T07:48:45;55.03;;;23.75;;
31836;SDS011;18401;49.344;6.240;2023-02-12T07:51:12;57.95;;;22.83;;
31836;SDS011;18401;49.344;6.240;2023-02-12T07:53:40;56.65;;;24.52;;
31836;SDS011;18401;49.344;6.240;2023-02-12T07:56:13;58.42;;;23.73;;
31836;SDS011;18401;49.344;6.240;2023-02-12T07:58:41;55.37;;;24.70;;
31836;SDS011;18401;49.344;6.240;2023-02-12T08:01:15;58.83;;;23.48;;
31836;SDS011;18401;49.344;6.240;2023-02-12T08:03:42;56.10;;;24.92;;
31836;SDS011;18401;49.344;6.240;2023-02-12T08:06:15;49.25;;;22.02;;
31836;SDS011;18401;49.344;6.240;2023-02-12T08:08:43;55.53;;;24.67;;
31836;SDS011;18401;49.344;6.240;2023-02-12T08:11:10;65.82;;;25.48;;
31836;SDS011;18401;49.344;6.240;2023-02-12T08:13:38;67.15;;;26.00;;
31836;SDS011;18401;49.344;6.240;2023-02-12T08:16:05;65.63;;;25.45;;
31836;SDS011;18401;49.344;6.240;2023-02-12T08:18:32;61.40;;;24.73;;
31836;SDS011;18401;49.344;6.240;2023-02-12T08:21:05;55.00;;;24.30;;
31836;SDS011;18401;49.344;6.240;2023-02-12T08:23:36;52.15;;;23.65;;
31836;SDS011;18401;49.344;6.240;2023-02-12T08:28:35;51.67;;;23.15;;
31836;SDS011;18401;49.344;6.240;2023-02-12T08:31:03;53.50;;;23.50;;
31836;SDS011;18401;49.344;6.240;2023-02-12T08:33:31;52.80;;;22.98;;
31836;SDS011;18401;49.344;6.240;2023-02-12T08:36:07;57.13;;;25.15;;
31836;SDS011;18401;49.344;6.240;2023-02-12T08:38:35;63.17;;;24.90;;
31836;SDS011;18401;49.344;6.240;2023-02-12T08:41:02;54.53;;;23.45;;
31836;SDS011;18401;49.344;6.240;2023-02-12T08:43:33;53.85;;;23.75;;
31836;SDS011;18401;49.344;6.240;2023-02-12T08:46:00;58.00;;;26.77;;
31836;SDS011;18401;49.344;6.240;2023-02-12T08:48:26;56.75;;;25.33;;
31836;SDS011;18401;49.344;6.240;2023-02-12T08:50:52;70.70;;;30.95;;
31836;SDS011;18401;49.344;6.240;2023-02-12T08:53:18;56.05;;;26.70;;
31836;SDS011;18401;49.344;6.240;2023-02-12T08:55:47;54.88;;;24.52;;
31836;SDS011;18401;49.344;6.240;2023-02-12T08:58:14;51.78;;;21.67;;
31836;SDS011;18401;49.344;6.240;2023-02-12T09:00:40;45.70;;;20.67;;
31836;SDS011;18401;49.344;6.240;2023-02-12T09:03:05;44.95;;;19.05;;
31836;SDS011;18401;49.344;6.240;2023-02-12T09:05:31;41.78;;;18.58;;
31836;SDS011;18401;49.344;6.240;2023-02-12T09:07:57;44.30;;;19.38;;
31836;SDS011;18401;49.344;6.240;2023-02-12T09:10:22;42.45;;;18.55;;
31836;SDS011;18401;49.344;6.240;2023-02-12T09:12:48;40.92;;;18.83;;
31836;SDS011;18401;49.344;6.240;2023-02-12T09:15:14;47.85;;;20.35;;
31836;SDS011;18401;49.344;6.240;2023-02-12T09:17:39;46.22;;;19.58;;
31836;SDS011;18401;49.344;6.240;2023-02-12T09:20:07;39.22;;;18.65;;
31836;SDS011;18401;49.344;6.240;2023-02-12T09:22:34;47.95;;;20.98;;
31836;SDS011;18401;49.344;6.240;2023-02-12T09:25:02;51.30;;;20.10;;
31836;SDS011;18401;49.344;6.240;2023-02-12T09:27:29;43.40;;;20.70;;
31836;SDS011;18401;49.344;6.240;2023-02-12T09:29:54;44.05;;;19.77;;
31836;SDS011;18401;49.344;6.240;2023-02-12T09:32:20;50.40;;;19.35;;
31836;SDS011;18401;49.344;6.240;2023-02-12T09:34:46;46.45;;;21.13;;
31836;SDS011;18401;49.344;6.240;2023-02-12T09:37:11;39.72;;;18.83;;
31836;SDS011;18401;49.344;6.240;2023-02-12T09:39:37;40.85;;;18.45;;
31836;SDS011;18401;49.344;6.240;2023-02-12T09:53:01;41.10;;;18.20;;
31836;SDS011;18401;49.344;6.240;2023-02-12T09:55:29;42.47;;;17.83;;
31836;SDS011;18401;49.344;6.240;2023-02-12T09:57:57;38.67;;;18.65;;
31836;SDS011;18401;49.344;6.240;2023-02-12T10:00:27;45.17;;;19.40;;
31836;SDS011;18401;49.344;6.240;2023-02-12T10:02:55;43.78;;;18.42;;
31836;SDS011;18401;49.344;6.240;2023-02-12T10:05:26;40.97;;;18.48;;
31836;SDS011;18401;49.344;6.240;2023-02-12T10:10:54;36.00;;;17.05;;
31836;SDS011;18401;49.344;6.240;2023-02-12T10:19:05;40.92;;;17.85;;
31836;SDS011;18401;49.344;6.240;2023-02-12T10:21:43;39.03;;;17.33;;
31836;SDS011;18401;49.344;6.240;2023-02-12T10:24:38;35.88;;;15.13;;
31836;SDS011;18401;49.344;6.240;2023-02-12T10:30:26;35.28;;;15.13;;
31836;SDS011;18401;49.344;6.240;2023-02-12T10:33:16;27.13;;;12.82;;
31836;SDS011;18401;49.344;6.240;2023-02-12T10:35:53;27.00;;;13.10;;
31836;SDS011;18401;49.344;6.240;2023-02-12T10:38:44;33.55;;;13.23;;
31836;SDS011;18401;49.344;6.240;2023-02-12T10:41:14;28.98;;;11.93;;
31836;SDS011;18401;49.344;6.240;2023-02-12T10:43:41;31.10;;;13.00;;
31836;SDS011;18401;49.344;6.240;2023-02-12T10:46:13;27.15;;;12.38;;
31836;SDS011;18401;49.344;6.240;2023-02-12T10:48:41;26.23;;;11.63;;
31836;SDS011;18401;49.344;6.240;2023-02-12T10:53:42;23.85;;;10.82;;
31836;SDS011;18401;49.344;6.240;2023-02-12T10:56:14;27.20;;;12.30;;
31836;SDS011;18401;49.344;6.240;2023-02-12T11:04:18;20.85;;;10.57;;
31836;SDS011;18401;49.344;6.240;2023-02-12T11:07:02;23.92;;;11.45;;
31836;SDS011;18401;49.344;6.240;2023-02-12T11:09:33;21.73;;;9.38;;
31836;SDS011;18401;49.344;6.240;2023-02-12T11:12:29;22.98;;;10.00;;
31836;SDS011;18401;49.344;6.240;2023-02-12T11:17:27;22.10;;;10.10;;
31836;SDS011;18401;49.344;6.240;2023-02-12T11:20:00;24.08;;;11.35;;
31836;SDS011;18401;49.344;6.240;2023-02-12T11:22:29;25.17;;;12.52;;
31836;SDS011;18401;49.344;6.240;2023-02-12T11:24:59;26.77;;;13.02;;
31836;SDS011;18401;49.344;6.240;2023-02-12T11:27:32;28.50;;;12.38;;
31836;SDS011;18401;49.344;6.240;2023-02-12T11:30:31;30.70;;;12.30;;
31836;SDS011;18401;49.344;6.240;2023-02-12T11:32:50;27.85;;;12.55;;
31836;SDS011;18401;49.344;6.240;2023-02-12T11:37:49;29.88;;;13.55;;
31836;SDS011;18401;49.344;6.240;2023-02-12T11:40:30;30.42;;;14.05;;
31836;SDS011;18401;49.344;6.240;2023-02-12T11:43:01;28.38;;;12.98;;
31836;SDS011;18401;49.344;6.240;2023-02-12T11:48:15;33.03;;;14.52;;
31836;SDS011;18401;49.344;6.240;2023-02-12T11:50:48;31.20;;;13.90;;
31836;SDS011;18401;49.344;6.240;2023-02-12T11:53:21;27.63;;;13.48;;
31836;SDS011;18401;49.344;6.240;2023-02-12T11:55:59;30.90;;;13.30;;
31836;SDS011;18401;49.344;6.240;2023-02-12T11:58:27;31.88;;;13.73;;
31836;SDS011;18401;49.344;6.240;2023-02-12T12:04:03;31.88;;;13.60;;
31836;SDS011;18401;49.344;6.240;2023-02-12T12:17:04;24.67;;;11.00;;
31836;SDS011;18401;49.344;6.240;2023-02-12T12:20:13;20.80;;;10.30;;
31836;SDS011;18401;49.344;6.240;2023-02-12T12:22:54;23.33;;;11.15;;
31836;SDS011;18401;49.344;6.240;2023-02-12T12:25:25;33.70;;;12.07;;
31836;SDS011;18401;49.344;6.240;2023-02-12T12:29:00;23.83;;;10.88;;
31836;SDS011;18401;49.344;6.240;2023-02-12T12:58:05;25.05;;;12.07;;
31836;SDS011;18401;49.344;6.240;2023-02-12T13:11:34;26.50;;;12.98;;
31836;SDS011;18401;49.344;6.240;2023-02-12T13:16:51;23.08;;;11.45;;
31836;SDS011;18401;49.344;6.240;2023-02-12T13:19:36;20.58;;;9.88;;
31836;SDS011;18401;49.344;6.240;2023-02-12T13:27:21;22.20;;;11.23;;
31836;SDS011;18401;49.344;6.240;2023-02-12T13:32:32;27.23;;;11.57;;
31836;SDS011;18401;49.344;6.240;2023-02-12T13:35:01;24.50;;;12.13;;
31836;SDS011;18401;49.344;6.240;2023-02-12T13:40:19;22.58;;;11.57;;
31836;SDS011;18401;49.344;6.240;2023-02-12T13:45:39;21.75;;;10.63;;
31836;SDS011;18401;49.344;6.240;2023-02-12T13:48:22;21.92;;;10.73;;
31836;SDS011;18401;49.344;6.240;2023-02-12T13:57:14;21.95;;;10.30;;
31836;SDS011;18401;49.344;6.240;2023-02-12T13:59:45;26.33;;;11.60;;
31836;SDS011;18401;49.344;6.240;2023-02-12T14:02:25;22.95;;;10.68;;
31836;SDS011;18401;49.344;6.240;2023-02-12T14:05:14;23.50;;;11.57;;
31836;SDS011;18401;49.344;6.240;2023-02-12T14:07:48;22.35;;;11.07;;
31836;SDS011;18401;49.344;6.240;2023-02-12T14:12:49;23.42;;;10.98;;
31836;SDS011;18401;49.344;6.240;2023-02-12T14:18:19;20.38;;;10.25;;
31836;SDS011;18401;49.344;6.240;2023-02-12T14:21:34;19.00;;;10.73;;
31836;SDS011;18401;49.344;6.240;2023-02-12T14:23:41;21.02;;;10.73;;
31836;SDS011;18401;49.344;6.240;2023-02-12T14:26:11;20.67;;;10.38;;
31836;SDS011;18401;49.344;6.240;2023-02-12T14:41:32;23.00;;;10.63;;
31836;SDS011;18401;49.344;6.240;2023-02-12T14:47:08;20.52;;;10.93;;
31836;SDS011;18401;49.344;6.240;2023-02-12T14:49:38;22.70;;;10.55;;
31836;SDS011;18401;49.344;6.240;2023-02-12T14:54:41;20.90;;;10.65;;
31836;SDS011;18401;49.344;6.240;2023-02-12T14:59:46;23.52;;;10.02;;
31836;SDS011;18401;49.344;6.240;2023-02-12T15:02:25;20.50;;;9.88;;
31836;SDS011;18401;49.344;6.240;2023-02-12T15:04:57;18.85;;;9.57;;
31836;SDS011;18401;49.344;6.240;2023-02-12T15:07:30;17.65;;;9.57;;
31836;SDS011;18401;49.344;6.240;2023-02-12T15:10:03;23.50;;;11.10;;
31836;SDS011;18401;49.344;6.240;2023-02-12T15:12:38;20.35;;;10.15;;
31836;SDS011;18401;49.344;6.240;2023-02-12T15:18:28;18.63;;;9.70;;
31836;SDS011;18401;49.344;6.240;2023-02-12T15:21:04;19.67;;;9.18;;
31836;SDS011;18401;49.344;6.240;2023-02-12T15:23:59;19.00;;;10.02;;
31836;SDS011;18401;49.344;6.240;2023-02-12T15:26:27;16.58;;;8.55;;
31836;SDS011;18401;49.344;6.240;2023-02-12T15:28:56;20.42;;;10.68;;
31836;SDS011;18401;49.344;6.240;2023-02-12T15:31:25;18.80;;;9.07;;
31836;SDS011;18401;49.344;6.240;2023-02-12T15:33:54;19.77;;;9.68;;
31836;SDS011;18401;49.344;6.240;2023-02-12T15:36:24;19.63;;;9.20;;
31836;SDS011;18401;49.344;6.240;2023-02-12T15:38:53;13.90;;;7.72;;
31836;SDS011;18401;49.344;6.240;2023-02-12T15:41:39;17.38;;;8.93;;
31836;SDS011;18401;49.344;6.240;2023-02-12T15:46:59;17.02;;;8.40;;
31836;SDS011;18401;49.344;6.240;2023-02-12T15:49:27;16.90;;;8.98;;
31836;SDS011;18401;49.344;6.240;2023-02-12T15:51:58;17.92;;;9.52;;
31836;SDS011;18401;49.344;6.240;2023-02-12T15:54:26;17.23;;;8.98;;
31836;SDS011;18401;49.344;6.240;2023-02-12T15:56:53;17.58;;;8.68;;
31836;SDS011;18401;49.344;6.240;2023-02-12T15:59:20;17.80;;;9.73;;
31836;SDS011;18401;49.344;6.240;2023-02-12T16:01:55;18.05;;;9.10;;
31836;SDS011;18401;49.344;6.240;2023-02-12T16:04:32;17.52;;;8.23;;
31836;SDS011;18401;49.344;6.240;2023-02-12T16:07:05;17.70;;;10.02;;
31836;SDS011;18401;49.344;6.240;2023-02-12T16:09:35;18.38;;;9.68;;
31836;SDS011;18401;49.344;6.240;2023-02-12T16:12:02;18.10;;;9.30;;
31836;SDS011;18401;49.344;6.240;2023-02-12T16:22:43;23.17;;;10.68;;
31836;SDS011;18401;49.344;6.240;2023-02-12T16:28:02;27.42;;;10.48;;
31836;SDS011;18401;49.344;6.240;2023-02-12T16:30:33;24.80;;;10.50;;
31836;SDS011;18401;49.344;6.240;2023-02-12T16:33:30;24.98;;;11.48;;
31836;SDS011;18401;49.344;6.240;2023-02-12T16:36:05;19.38;;;10.45;;
31836;SDS011;18401;49.344;6.240;2023-02-12T16:38:41;19.40;;;9.98;;
31836;SDS011;18401;49.344;6.240;2023-02-12T16:46:26;20.52;;;10.43;;
31836;SDS011;18401;49.344;6.240;2023-02-12T16:48:56;24.40;;;11.68;;
31836;SDS011;18401;49.344;6.240;2023-02-12T16:51:25;21.83;;;10.73;;
31836;SDS011;18401;49.344;6.240;2023-02-12T16:53:52;23.75;;;11.00;;
31836;SDS011;18401;49.344;6.240;2023-02-12T16:56:21;25.33;;;12.05;;
31836;SDS011;18401;49.344;6.240;2023-02-12T16:58:49;22.52;;;10.65;;
31836;SDS011;18401;49.344;6.240;2023-02-12T17:01:23;31.13;;;13.02;;
31836;SDS011;18401;49.344;6.240;2023-02-12T17:03:50;24.52;;;11.63;;
31836;SDS011;18401;49.344;6.240;2023-02-12T17:06:21;26.63;;;12.77;;
31836;SDS011;18401;49.344;6.240;2023-02-12T17:08:48;31.08;;;13.65;;
31836;SDS011;18401;49.344;6.240;2023-02-12T17:11:14;33.60;;;15.43;;
31836;SDS011;18401;49.344;6.240;2023-02-12T17:13:42;28.98;;;14.70;;
31836;SDS011;18401;49.344;6.240;2023-02-12T17:16:09;27.70;;;13.77;;
31836;SDS011;18401;49.344;6.240;2023-02-12T17:18:35;32.30;;;14.00;;
31836;SDS011;18401;49.344;6.240;2023-02-12T17:21:03;25.42;;;13.43;;
31836;SDS011;18401;49.344;6.240;2023-02-12T17:23:31;27.42;;;13.32;;
31836;SDS011;18401;49.344;6.240;2023-02-12T17:25:57;27.58;;;13.88;;
31836;SDS011;18401;49.344;6.240;2023-02-12T17:28:23;27.27;;;13.60;;
31836;SDS011;18401;49.344;6.240;2023-02-12T17:30:50;23.67;;;12.63;;
31836;SDS011;18401;49.344;6.240;2023-02-12T17:33:16;24.48;;;12.80;;
31836;SDS011;18401;49.344;6.240;2023-02-12T17:35:43;25.95;;;12.73;;
31836;SDS011;18401;49.344;6.240;2023-02-12T17:38:08;24.35;;;11.88;;
31836;SDS011;18401;49.344;6.240;2023-02-12T17:40:35;22.27;;;10.95;;
31836;SDS011;18401;49.344;6.240;2023-02-12T17:43:02;23.42;;;10.85;;
31836;SDS011;18401;49.344;6.240;2023-02-12T17:45:29;23.38;;;10.82;;
31836;SDS011;18401;49.344;6.240;2023-02-12T17:47:55;22.73;;;11.02;;
31836;SDS011;18401;49.344;6.240;2023-02-12T17:50:21;21.45;;;10.32;;
31836;SDS011;18401;49.344;6.240;2023-02-12T17:52:47;22.55;;;10.60;;
31836;SDS011;18401;49.344;6.240;2023-02-12T17:55:13;18.70;;;9.85;;
31836;SDS011;18401;49.344;6.240;2023-02-12T17:57:41;30.63;;;13.13;;
31836;SDS011;18401;49.344;6.240;2023-02-12T18:00:07;21.20;;;10.07;;
31836;SDS011;18401;49.344;6.240;2023-02-12T18:02:35;22.42;;;10.20;;
31836;SDS011;18401;49.344;6.240;2023-02-12T18:05:01;20.15;;;10.10;;
31836;SDS011;18401;49.344;6.240;2023-02-12T18:07:28;23.50;;;11.40;;
31836;SDS011;18401;49.344;6.240;2023-02-12T18:09:57;23.65;;;10.00;;
31836;SDS011;18401;49.344;6.240;2023-02-12T18:12:23;21.00;;;9.93;;
31836;SDS011;18401;49.344;6.240;2023-02-12T18:14:49;24.88;;;11.35;;
31836;SDS011;18401;49.344;6.240;2023-02-12T18:17:14;34.42;;;14.35;;
31836;SDS011;18401;49.344;6.240;2023-02-12T18:19:40;33.67;;;13.90;;
31836;SDS011;18401;49.344;6.240;2023-02-12T18:22:06;39.60;;;14.60;;
31836;SDS011;18401;49.344;6.240;2023-02-12T18:24:32;36.53;;;16.00;;